Stadtlohn-Vreden Airfield

METAR EDDG TAF EDDG
11 °C
°C
/
°C
23m
Âge
01:12:40
LT
23:12
UTC
0 ft

1.000

2.000

3.000

4.000

5.000

VFR
<?= Yii::t('app', 'Wind direction') ?> <?= Yii::t('app', 'of'); ?>
VAR
05:16
Lever du soleil
88%
Humidité
Cisaillement du vent
Fermé/neige
Portée visuelle RWY
Condition RWY
Visibilité vert.
Visibilité min.
CAVOK
Tendance
Correction
Rapport spécial
1026 hPa
QNH
METAR EDDG 302250Z AUTO VRB02KT CAVOK 11/09 Q1026 NOSIG
Aucun nuage
2 kt
2 kt
01:00
VFR
7 kt
02:00
VFR
7 kt
03:00
VFR
7 kt
04:00
VFR
7 kt
05:00
VFR
7 kt
06:00
VFR
7 kt
07:00
VFR
7 kt
10 km+
Vue
Non
Base cloud
2 kt
Vent
metar-taf.com/EDLS

Metar-Taf.com

Décodeur visuel

Nous et des tiers suivons ton comportement Internet sur notre site Web à l'aide de cookies. Si tu continues, nous supposons que tu es d'accord avec notre Politique en matière de cookies.